Aérodrome :
LOGIN :

S'inscrire | Disclaimer

   EN    FR    IT 

 










Légende :    VFR   VFR Marginal   IFR   IFR Intensif   IFR Très Intensif
Visi : 
Plafond : 
>= 8 km
>= 3000ft
5 à 8 km
1000 à 3000 ft
1500m à 5 km
500 à 1000 ft
800 à 1500m
200 à 500 ft
< 800m
< 200 ft
Symboles :   Orages  Brouillard  Fortes neiges  Fortes précipitations  Vent > 20 kt
SIGMETs :   Divers  Orages  Givrage  Turbulence  Onde Orograph.  Cendres Volcan.






- Altitude de l'aérodrome : 121 ft
- Code IATA : HUY


EGNJ - Humberside

DERNIER METAR :
  • 182120Z AUTO 24017KT 9999 NCD 05/02 Q1010

METARs EXPIRÉS :
  • 182050Z 24017KT 9000 FEW040 05/02 Q1010
  • 182020Z 24018KT 9000 FEW032 05/03 Q1009
  • 181950Z 24015KT 9000 FEW030 06/03 Q1009
  • 181920Z 24013KT 9000 FEW030 06/04 Q1009
  • 181850Z 25009KT 9000 -SHRA SCT012 BKN028 06/04 Q1009

TAF TAF EGNJ
Valide du 18 à 21h jusqu'au 19 à 06h UTC


182003Z 1821/1906 25014KT 9999 SCT030
PROB30
TEMPO 1821/1903 25018G30KT 6000 SHRA
ATIS : +44 1652 682 020



MET'MAP, la Météo Aéronautique d'un coup d'oeil ! - Copyright ORBIFLY Décembre 2007 - Disclaimer

ORBIFLY MET'MAP TEAM :

Programmation & Développement : Alexandra Zaïnal
Sur une idée originale de : Baudouin d'Aumeries
Assistance à la programmation : Marc-Olivier Méhu
Soutien technique & logistique : Manuel Goepfert

Contact : metmap@orbifly.com




SOURCES & CREDITS :

   NOAA